Time;durP1;ratioP1;P1;durP2;ratioP2;P2;SDS_P1;SDS_P2;PMS_P1;PMS_P2;Temp;Humidity;BMP_temperature;BMP_pressure;BME280_temperature;BME280_humidity;BME280_pressure;Samples;Min_cycle;Max_cycle;Signal;HPM_P1;HPM_P2
2023/02/04 00:01:46;;;;;;;19.70;2.72;;;7.10;99.90;;;;;;5050629;28;20025;-65
2023/02/04 00:04:13;;;;;;;20.90;5.18;;;7.20;99.90;;;;;;5043996;28;20030;-65
2023/02/04 00:06:38;;;;;;;16.95;3.75;;;7.20;99.90;;;;;;5047651;28;20036;-66
2023/02/04 00:09:04;;;;;;;19.25;3.58;;;7.20;99.90;;;;;;5048646;28;20029;-65
2023/02/04 00:11:29;;;;;;;14.18;2.90;;;7.20;99.90;;;;;;5054690;28;20029;-66
2023/02/04 00:13:55;;;;;;;25.85;4.95;;;7.20;99.90;;;;;;5062732;28;20523;-67
2023/02/04 00:16:20;;;;;;;16.83;3.22;;;7.20;99.90;;;;;;5063171;28;20025;-65
2023/02/04 00:18:46;;;;;;;21.30;4.18;;;7.20;99.90;;;;;;5048659;28;20049;-64
2023/02/04 00:21:12;;;;;;;19.05;3.50;;;7.20;99.90;;;;;;5050703;28;20132;-65
2023/02/04 00:23:37;;;;;;;14.23;2.60;;;7.20;99.90;;;;;;5047341;28;20440;-67
2023/02/04 00:26:03;;;;;;;16.23;3.55;;;7.20;99.90;;;;;;5050061;28;20023;-65
2023/02/04 00:28:29;;;;;;;27.58;3.42;;;7.20;99.90;;;;;;5050700;28;20065;-65
2023/02/04 00:30:54;;;;;;;23.67;3.20;;;7.20;99.90;;;;;;5049506;28;20067;-65
2023/02/04 00:33:20;;;;;;;16.40;2.30;;;7.20;99.90;;;;;;5049450;28;20013;-65
2023/02/04 00:35:46;;;;;;;24.50;5.45;;;7.20;99.90;;;;;;5049173;28;20025;-65
2023/02/04 00:38:11;;;;;;;24.90;4.15;;;7.20;99.90;;;;;;5051852;28;20077;-66
2023/02/04 00:40:37;;;;;;;21.30;4.55;;;7.20;99.90;;;;;;5050599;28;20024;-67
2023/02/04 00:43:02;;;;;;;18.25;3.35;;;7.10;99.90;;;;;;5050629;28;20402;-66
2023/02/04 00:45:28;;;;;;;26.67;4.78;;;7.10;99.90;;;;;;5046978;28;20032;-66
2023/02/04 00:47:53;;;;;;;20.65;3.50;;;7.10;99.90;;;;;;5050446;28;21877;-66
2023/02/04 00:50:19;;;;;;;25.83;3.75;;;7.00;99.90;;;;;;5056395;28;20846;-67
2023/02/04 00:52:45;;;;;;;15.32;4.55;;;7.00;99.90;;;;;;5049106;28;20047;-65
2023/02/04 00:55:11;;;;;;;28.25;4.25;;;7.00;99.90;;;;;;5048503;28;20026;-65
2023/02/04 00:57:37;;;;;;;35.92;4.57;;;7.00;99.90;;;;;;5048331;28;20079;-65
2023/02/04 01:00:04;;;;;;;19.75;5.10;;;7.00;99.90;;;;;;5050739;28;20128;-65
2023/02/04 01:02:30;;;;;;;30.77;4.82;;;7.00;99.90;;;;;;5044338;28;20016;-66
2023/02/04 01:04:55;;;;;;;17.27;3.95;;;7.00;99.90;;;;;;5044837;28;20511;-65
2023/02/04 01:07:21;;;;;;;21.33;4.00;;;6.90;99.90;;;;;;5049546;28;20129;-65
2023/02/04 01:09:46;;;;;;;15.93;4.38;;;6.90;99.90;;;;;;5045276;28;20550;-64
2023/02/04 01:12:12;;;;;;;30.67;5.13;;;7.00;99.90;;;;;;5035163;28;20490;-65
2023/02/04 01:14:37;;;;;;;13.20;3.65;;;7.00;99.90;;;;;;5038885;28;20052;-65
2023/02/04 01:17:03;;;;;;;25.70;3.22;;;6.90;99.90;;;;;;5042568;28;20030;-66
2023/02/04 01:19:28;;;;;;;18.92;3.33;;;7.00;99.90;;;;;;5044218;28;20024;-65
2023/02/04 01:21:54;;;;;;;29.02;4.95;;;6.90;99.90;;;;;;5050683;28;20514;-65
2023/02/04 01:24:19;;;;;;;12.50;3.28;;;6.90;99.90;;;;;;5049149;28;20025;-65
2023/02/04 01:26:45;;;;;;;26.52;3.50;;;6.90;99.90;;;;;;5050079;28;20033;-65
2023/02/04 01:29:11;;;;;;;22.55;4.03;;;6.90;99.90;;;;;;5047540;28;20075;-66
2023/02/04 01:31:36;;;;;;;22.83;3.65;;;6.90;99.90;;;;;;5043840;28;20033;-65
2023/02/04 01:34:02;;;;;;;17.17;3.65;;;6.90;99.90;;;;;;5047488;28;20036;-64
2023/02/04 01:36:28;;;;;;;21.48;4.10;;;6.90;99.90;;;;;;5035989;28;20476;-66
2023/02/04 01:38:53;;;;;;;30.65;3.60;;;6.90;99.90;;;;;;5043125;28;20022;-66
2023/02/04 01:41:19;;;;;;;26.63;4.35;;;6.90;99.90;;;;;;5040748;28;20681;-64
2023/02/04 01:43:46;;;;;;;17.02;4.35;;;7.00;99.90;;;;;;5038494;28;20032;-66
2023/02/04 01:46:12;;;;;;;19.17;4.30;;;7.10;99.90;;;;;;5043640;28;20438;-65
2023/02/04 01:48:38;;;;;;;22.40;3.65;;;7.10;99.90;;;;;;5043920;28;20121;-67
2023/02/04 01:51:07;;;;;;;21.00;4.22;;;7.00;99.90;;;;;;5040410;28;20078;-67
2023/02/04 01:53:33;;;;;;;19.35;3.30;;;7.00;99.90;;;;;;5042583;28;20030;-67
2023/02/04 01:56:00;;;;;;;17.17;3.55;;;7.00;99.90;;;;;;5043034;28;20025;-65
2023/02/04 01:58:28;;;;;;;17.80;3.97;;;7.00;99.90;;;;;;5043520;28;20489;-67
2023/02/04 02:00:54;;;;;;;30.58;3.92;;;6.90;99.90;;;;;;5043408;28;20017;-66
2023/02/04 02:03:20;;;;;;;19.23;3.05;;;6.90;99.90;;;;;;5069643;22;20511;-64
2023/02/04 02:05:49;;;;;;;18.75;3.33;;;6.80;99.90;;;;;;5044866;28;20025;-64
2023/02/04 02:08:15;;;;;;;22.17;4.25;;;6.90;99.90;;;;;;5030455;28;20025;-64
2023/02/04 02:10:44;;;;;;;19.52;3.85;;;6.80;99.90;;;;;;5039483;28;20411;-64
2023/02/04 02:13:11;;;;;;;21.77;3.25;;;6.80;99.90;;;;;;5046207;28;20028;-64
2023/02/04 02:15:38;;;;;;;41.70;6.30;;;6.90;99.90;;;;;;5025944;28;20033;-63
2023/02/04 02:18:04;;;;;;;26.42;5.10;;;6.80;99.90;;;;;;5030222;28;20108;-65
2023/02/04 02:20:30;;;;;;;24.15;4.78;;;6.80;99.90;;;;;;5045307;28;20152;-64
2023/02/04 02:23:33;;;;;;;14.48;3.05;;;6.80;99.90;;;;;;5030462;28;20059;-63
2023/02/04 02:25:58;;;;;;;17.83;4.20;;;6.80;99.90;;;;;;5041506;28;20025;-64
2023/02/04 02:28:24;;;;;;;27.08;6.35;;;6.80;99.90;;;;;;5047873;28;20096;-64
2023/02/04 02:30:50;;;;;;;16.25;2.50;;;6.80;99.90;;;;;;5038306;28;20028;-64
2023/02/04 02:33:19;;;;;;;24.83;3.47;;;6.80;99.90;;;;;;5032620;28;20388;-63
2023/02/04 02:35:47;;;;;;;22.95;4.32;;;6.80;99.90;;;;;;5025981;28;20078;-64
2023/02/04 02:38:14;;;;;;;30.10;3.28;;;6.80;99.90;;;;;;5045941;28;20044;-63
2023/02/04 02:40:40;;;;;;;26.38;3.95;;;6.80;99.90;;;;;;5047707;28;20033;-64
2023/02/04 02:43:11;;;;;;;24.15;3.78;;;6.80;99.90;;;;;;5046059;28;20025;-64
2023/02/04 02:45:37;;;;;;;24.30;4.28;;;6.70;99.90;;;;;;5047275;28;20032;-64
2023/02/04 02:48:02;;;;;;;19.52;4.22;;;6.70;99.90;;;;;;5041638;28;20175;-65
2023/02/04 02:50:30;;;;;;;21.55;3.97;;;6.70;99.90;;;;;;5042796;28;20025;-64
2023/02/04 02:52:57;;;;;;;21.30;4.05;;;6.70;99.90;;;;;;5043906;28;20553;-64
2023/02/04 02:55:26;;;;;;;19.77;2.97;;;6.70;99.90;;;;;;5043816;28;20021;-64
2023/02/04 02:57:52;;;;;;;17.35;3.67;;;6.80;99.90;;;;;;5045723;28;20507;-64
2023/02/04 03:00:22;;;;;;;21.60;3.72;;;6.80;99.90;;;;;;5045926;28;20032;-64
2023/02/04 03:03:29;;;;;;;27.27;4.68;;;6.70;99.90;;;;;;5045531;28;20052;-64
2023/02/04 03:05:59;;;;;;;27.95;3.75;;;6.70;99.90;;;;;;5038981;28;20035;-64
2023/02/04 03:08:25;;;;;;;25.75;3.75;;;6.70;99.90;;;;;;5046775;28;20021;-64
2023/02/04 03:10:51;;;;;;;18.65;3.72;;;6.70;99.90;;;;;;5046902;28;20028;-64
2023/02/04 03:13:18;;;;;;;22.75;3.13;;;6.70;99.90;;;;;;5043484;28;20032;-64
2023/02/04 03:15:46;;;;;;;19.95;3.75;;;6.70;99.90;;;;;;5044349;28;20139;-63
2023/02/04 03:18:14;;;;;;;18.30;3.95;;;6.70;99.90;;;;;;5045741;28;20023;-64
2023/02/04 03:20:41;;;;;;;29.88;3.65;;;6.70;99.90;;;;;;5032056;28;20418;-63
2023/02/04 03:23:06;;;;;;;28.30;4.10;;;6.70;99.90;;;;;;5033990;28;20024;-64
2023/02/04 03:25:33;;;;;;;29.15;3.35;;;6.70;99.90;;;;;;5048841;28;20706;-66
2023/02/04 03:27:58;;;;;;;22.00;3.75;;;6.70;99.90;;;;;;5052970;28;20048;-64
2023/02/04 03:30:25;;;;;;;26.35;4.03;;;6.70;99.90;;;;;;5050600;28;20410;-62
2023/02/04 03:32:51;;;;;;;23.13;4.22;;;6.70;99.90;;;;;;5049103;28;20039;-65
2023/02/04 03:35:17;;;;;;;27.42;4.95;;;6.60;99.90;;;;;;5051467;28;20512;-65
2023/02/04 03:37:42;;;;;;;22.33;3.80;;;6.60;99.90;;;;;;5048103;28;20082;-64
2023/02/04 03:40:09;;;;;;;13.75;3.88;;;6.60;99.90;;;;;;5050746;28;20017;-65
2023/02/04 03:42:34;;;;;;;20.60;3.58;;;6.60;99.90;;;;;;5043715;28;20068;-64
2023/02/04 03:45:00;;;;;;;30.65;3.78;;;6.60;99.90;;;;;;5048559;28;20057;-64
2023/02/04 03:47:26;;;;;;;31.73;3.88;;;6.60;99.90;;;;;;5046179;28;20083;-63
2023/02/04 03:49:51;;;;;;;19.10;3.10;;;6.60;99.90;;;;;;5049626;28;20064;-64
2023/02/04 03:52:17;;;;;;;22.38;3.50;;;6.60;99.90;;;;;;5050167;28;20487;-64
2023/02/04 03:54:42;;;;;;;19.48;4.22;;;6.50;99.90;;;;;;5046691;28;20037;-64
2023/02/04 03:57:09;;;;;;;12.55;3.50;;;6.60;99.90;;;;;;5049866;28;20110;-65
2023/02/04 03:59:35;;;;;;;29.85;4.90;;;6.60;99.90;;;;;;5050811;28;20017;-64
2023/02/04 04:02:00;;;;;;;26.48;3.85;;;6.60;99.90;;;;;;5043733;28;20029;-63
2023/02/04 04:04:26;;;;;;;27.92;4.80;;;6.60;99.90;;;;;;5049122;28;20041;-64
2023/02/04 04:06:51;;;;;;;20.10;3.30;;;6.60;99.90;;;;;;5047897;28;20027;-64
2023/02/04 04:09:17;;;;;;;20.20;4.28;;;6.50;99.90;;;;;;5049375;28;20033;-64
2023/02/04 04:11:42;;;;;;;22.90;3.88;;;6.50;99.90;;;;;;5047520;28;20040;-64
2023/02/04 04:14:08;;;;;;;14.85;4.10;;;6.50;99.90;;;;;;5044245;28;20057;-64
2023/02/04 04:16:33;;;;;;;19.13;4.30;;;6.50;99.90;;;;;;5028401;28;22184;-64
2023/02/04 04:18:59;;;;;;;22.33;3.95;;;6.50;99.90;;;;;;5047790;28;20031;-63
2023/02/04 04:21:24;;;;;;;23.40;3.55;;;6.50;99.90;;;;;;5046199;28;20021;-64
2023/02/04 04:23:50;;;;;;;18.95;3.38;;;6.50;99.90;;;;;;5049410;28;20707;-64
2023/02/04 04:26:16;;;;;;;27.02;4.18;;;6.40;99.90;;;;;;5045925;28;20040;-64
2023/02/04 04:28:42;;;;;;;26.52;3.35;;;6.50;99.90;;;;;;5050742;28;20021;-65
2023/02/04 04:31:07;;;;;;;23.90;5.25;;;6.50;99.90;;;;;;5049072;28;20029;-64
2023/02/04 04:33:33;;;;;;;27.02;3.40;;;6.40;99.90;;;;;;5049608;28;20102;-65
2023/02/04 04:35:59;;;;;;;19.17;3.55;;;6.40;99.90;;;;;;5049013;28;20685;-65
2023/02/04 04:38:24;;;;;;;28.27;4.53;;;6.40;99.90;;;;;;5049638;28;20548;-63
2023/02/04 04:40:50;;;;;;;23.27;4.10;;;6.40;99.90;;;;;;5049341;28;20021;-64
2023/02/04 04:43:15;;;;;;;18.95;2.95;;;6.50;99.90;;;;;;5049108;28;20036;-64
2023/02/04 04:45:41;;;;;;;28.30;3.30;;;6.40;99.90;;;;;;5040054;28;20163;-64
2023/02/04 04:48:06;;;;;;;15.65;2.90;;;6.50;99.90;;;;;;5051746;28;20028;-65
2023/02/04 04:50:32;;;;;;;28.58;3.80;;;6.40;99.90;;;;;;5050542;28;20024;-64
2023/02/04 04:52:57;;;;;;;14.48;3.97;;;6.40;99.90;;;;;;5045627;28;20025;-63
2023/02/04 04:55:23;;;;;;;27.05;4.63;;;6.40;99.90;;;;;;5048458;28;20021;-63
2023/02/04 04:57:48;;;;;;;22.90;3.88;;;6.40;99.90;;;;;;5048651;28;20108;-65
2023/02/04 05:00:17;;;;;;;26.15;3.45;;;6.40;99.90;;;;;;5045320;28;20021;-64
2023/02/04 05:02:43;;;;;;;22.70;3.28;;;6.40;99.90;;;;;;5046490;28;20458;-64
2023/02/04 05:05:09;;;;;;;26.02;3.83;;;6.40;99.90;;;;;;5028649;28;20151;-64
2023/02/04 05:07:34;;;;;;;24.38;3.97;;;6.40;99.90;;;;;;5048078;28;20017;-63
2023/02/04 05:10:00;;;;;;;17.42;4.90;;;6.40;99.90;;;;;;5050168;28;20028;-64
2023/02/04 05:12:26;;;;;;;15.27;4.32;;;6.40;99.90;;;;;;5028911;28;20120;-64
2023/02/04 05:14:51;;;;;;;27.95;6.03;;;6.40;99.90;;;;;;5045398;28;20033;-64
2023/02/04 05:17:17;;;;;;;35.90;7.10;;;6.40;99.90;;;;;;5040313;28;20735;-63
2023/02/04 05:19:43;;;;;;;21.95;4.55;;;6.40;99.90;;;;;;5044008;28;20618;-64
2023/02/04 05:22:08;;;;;;;15.13;4.88;;;6.40;99.90;;;;;;5044258;28;20036;-63
2023/02/04 05:24:34;;;;;;;18.55;5.03;;;6.40;99.90;;;;;;5047644;28;20029;-64
2023/02/04 05:26:59;;;;;;;23.25;5.78;;;6.40;99.90;;;;;;5045949;28;20102;-65
2023/02/04 05:29:25;;;;;;;33.47;6.82;;;6.40;99.90;;;;;;5048166;28;20116;-63
2023/02/04 05:31:50;;;;;;;23.73;5.55;;;6.40;99.90;;;;;;5027965;28;20032;-64
2023/02/04 05:34:16;;;;;;;18.55;5.25;;;6.40;99.90;;;;;;5047117;28;20029;-64
2023/02/04 05:36:42;;;;;;;32.85;5.60;;;6.40;99.90;;;;;;5045740;28;20025;-64
2023/02/04 05:39:07;;;;;;;26.55;6.38;;;6.40;99.90;;;;;;5046504;28;20025;-64
2023/02/04 05:41:33;;;;;;;25.95;5.60;;;6.40;99.90;;;;;;5045932;28;20040;-65
2023/02/04 05:43:58;;;;;;;25.40;6.15;;;6.40;99.90;;;;;;5043253;28;20761;-64
2023/02/04 05:46:24;;;;;;;19.75;5.68;;;6.40;99.90;;;;;;5045042;28;20048;-64
2023/02/04 05:48:50;;;;;;;26.67;6.57;;;6.40;99.90;;;;;;5046301;28;20079;-65
2023/02/04 05:51:15;;;;;;;25.95;6.38;;;6.50;99.90;;;;;;5038326;28;20067;-64
2023/02/04 05:53:41;;;;;;;24.35;5.88;;;6.50;99.90;;;;;;5048015;28;20598;-64
2023/02/04 05:56:07;;;;;;;21.60;5.45;;;6.60;99.90;;;;;;5048363;28;20033;-65
2023/02/04 05:58:32;;;;;;;36.20;7.95;;;6.60;99.90;;;;;;5046665;28;20396;-63
2023/02/04 06:01:02;;;;;;;21.55;6.85;;;6.60;99.90;;;;;;5048044;28;20031;-64
2023/02/04 06:03:29;;;;;;;22.67;6.85;;;6.60;99.90;;;;;;5045678;28;20138;-64
2023/02/04 06:05:55;;;;;;;29.50;5.43;;;6.60;99.90;;;;;;5047562;28;20526;-64
2023/02/04 06:08:21;;;;;;;29.65;6.80;;;6.50;99.90;;;;;;5045210;28;20028;-64
2023/02/04 06:10:47;;;;;;;26.30;6.47;;;6.50;99.90;;;;;;5048183;28;20029;-63
2023/02/04 06:13:12;;;;;;;27.15;6.90;;;6.50;99.90;;;;;;5048010;28;20452;-65
2023/02/04 06:15:38;;;;;;;31.25;8.20;;;6.40;99.90;;;;;;5044175;28;20036;-64
2023/02/04 06:18:03;;;;;;;31.83;7.25;;;6.40;99.90;;;;;;5028439;28;20446;-64
2023/02/04 06:20:29;;;;;;;27.60;7.05;;;6.30;99.90;;;;;;5028247;28;20021;-65
2023/02/04 06:22:55;;;;;;;35.17;9.05;;;6.30;99.90;;;;;;5045927;28;20442;-65
2023/02/04 06:25:21;;;;;;;34.40;11.18;;;6.30;99.90;;;;;;5040941;28;20082;-64
2023/02/04 06:27:47;;;;;;;32.85;9.63;;;6.30;99.90;;;;;;5039503;28;20040;-64
2023/02/04 06:30:13;;;;;;;25.00;8.68;;;6.30;99.90;;;;;;5023637;28;20024;-64
2023/02/04 06:32:39;;;;;;;23.40;8.63;;;6.30;99.90;;;;;;5039402;28;20067;-65
2023/02/04 06:35:05;;;;;;;38.08;10.23;;;6.30;99.90;;;;;;5040265;28;20060;-64
2023/02/04 06:37:31;;;;;;;37.15;10.20;;;6.30;99.90;;;;;;5040094;28;20025;-64
2023/02/04 06:39:56;;;;;;;40.47;9.75;;;6.30;99.90;;;;;;5039908;28;20278;-63
2023/02/04 06:42:24;;;;;;;30.10;10.68;;;6.20;99.90;;;;;;5041012;28;20554;-65
2023/02/04 06:44:50;;;;;;;23.05;9.50;;;6.20;99.90;;;;;;5040037;28;20032;-63
2023/02/04 06:47:16;;;;;;;41.75;10.27;;;6.30;99.90;;;;;;5021692;28;20056;-64
2023/02/04 06:49:41;;;;;;;35.13;8.98;;;6.20;99.90;;;;;;5040481;28;20550;-65
2023/02/04 06:52:07;;;;;;;26.80;10.25;;;6.20;99.90;;;;;;5040334;28;20037;-64
2023/02/04 06:54:32;;;;;;;38.20;9.40;;;6.20;99.90;;;;;;5040563;28;20035;-64
2023/02/04 06:57:05;;;;;;;43.03;10.88;;;6.20;99.90;;;;;;5022539;28;20434;-65
2023/02/04 06:59:32;;;;;;;35.13;10.77;;;6.20;99.90;;;;;;5043530;28;20032;-64
2023/02/04 07:01:57;;;;;;;59.60;14.73;;;6.20;99.90;;;;;;5042082;28;20115;-64
2023/02/04 07:04:23;;;;;;;37.33;10.98;;;6.20;99.90;;;;;;5045066;28;20053;-64
2023/02/04 07:06:48;;;;;;;32.70;10.00;;;6.20;99.90;;;;;;5045865;28;20048;-64
2023/02/04 07:09:14;;;;;;;41.30;12.32;;;6.20;99.90;;;;;;5046176;28;20014;-64
2023/02/04 07:11:39;;;;;;;32.92;9.73;;;6.30;99.90;;;;;;5045143;28;20079;-65
2023/02/04 07:14:05;;;;;;;41.17;11.10;;;6.30;99.90;;;;;;5040604;28;20045;-64
2023/02/04 07:16:31;;;;;;;39.00;12.38;;;6.30;99.90;;;;;;5041329;28;20017;-65
2023/02/04 07:18:56;;;;;;;39.80;11.57;;;6.20;99.90;;;;;;5041915;28;20601;-63
2023/02/04 07:21:22;;;;;;;34.85;12.23;;;6.20;99.90;;;;;;5025346;28;20113;-65
2023/02/04 07:23:47;;;;;;;41.92;14.38;;;6.20;99.90;;;;;;5043067;28;20079;-64
2023/02/04 07:26:13;;;;;;;34.60;11.65;;;6.30;99.90;;;;;;5046681;28;20066;-64
2023/02/04 07:28:40;;;;;;;27.50;11.05;;;6.20;99.90;;;;;;5042298;28;20499;-65
2023/02/04 07:31:06;;;;;;;33.85;11.38;;;6.10;99.90;;;;;;5044548;28;20133;-64
2023/02/04 07:33:31;;;;;;;43.92;13.30;;;6.20;99.90;;;;;;5044916;28;20107;-63
2023/02/04 07:35:57;;;;;;;34.38;11.05;;;6.20;99.90;;;;;;5044097;28;20021;-64
2023/02/04 07:38:22;;;;;;;38.88;12.52;;;6.20;99.90;;;;;;5029517;28;20025;-64
2023/02/04 07:40:48;;;;;;;41.35;12.40;;;6.20;99.90;;;;;;5041503;28;20032;-64
2023/02/04 07:43:13;;;;;;;40.58;12.85;;;6.30;99.90;;;;;;5044979;28;20021;-64
2023/02/04 07:45:39;;;;;;;35.42;12.07;;;6.30;99.90;;;;;;5044865;28;20132;-65
2023/02/04 07:48:05;;;;;;;39.28;11.75;;;6.40;99.90;;;;;;5047811;28;20519;-65
2023/02/04 07:50:30;;;;;;;38.60;13.43;;;6.40;99.90;;;;;;5044936;28;21770;-63
2023/02/04 07:52:56;;;;;;;42.20;12.25;;;6.40;99.90;;;;;;5044847;28;20029;-65
2023/02/04 07:55:21;;;;;;;31.58;11.85;;;6.40;99.90;;;;;;5042492;28;20025;-64
2023/02/04 07:57:47;;;;;;;34.72;11.13;;;6.40;99.90;;;;;;5047616;28;20040;-64
2023/02/04 08:00:14;;;;;;;37.90;12.02;;;6.50;99.90;;;;;;5029416;28;20477;-64
2023/02/04 08:02:40;;;;;;;42.50;15.23;;;6.50;99.90;;;;;;5050081;28;20167;-64
2023/02/04 08:05:07;;;;;;;47.78;14.98;;;6.60;99.90;;;;;;5090302;22;20148;-66
2023/02/04 08:07:33;;;;;;;52.13;17.70;;;6.60;99.90;;;;;;5050242;28;20407;-67
2023/02/04 08:09:58;;;;;;;45.50;16.05;;;6.70;99.90;;;;;;5068948;28;20025;-65
2023/02/04 08:12:24;;;;;;;37.03;15.15;;;6.70;99.90;;;;;;5070482;28;20025;-65
2023/02/04 08:14:49;;;;;;;46.00;18.75;;;6.70;99.90;;;;;;5067651;28;20036;-66
2023/02/04 08:17:15;;;;;;;36.10;13.45;;;6.80;99.90;;;;;;5070746;28;20499;-67
2023/02/04 08:19:41;;;;;;;38.28;11.27;;;6.80;99.90;;;;;;5071413;28;20111;-64
2023/02/04 08:22:06;;;;;;;28.52;11.07;;;6.80;99.90;;;;;;5070413;28;20047;-65
2023/02/04 08:24:32;;;;;;;29.52;10.13;;;6.90;99.90;;;;;;5070464;28;20082;-67
2023/02/04 08:26:58;;;;;;;33.05;10.50;;;6.90;99.90;;;;;;5072138;28;20031;-67
2023/02/04 08:29:27;;;;;;;35.00;11.20;;;7.00;99.90;;;;;;5067344;28;20126;-64
2023/02/04 08:31:52;;;;;;;34.20;10.38;;;6.90;99.90;;;;;;5070208;28;20021;-66
2023/02/04 08:34:18;;;;;;;26.10;9.85;;;7.00;99.90;;;;;;5071035;28;20510;-67
2023/02/04 08:36:43;;;;;;;40.83;12.73;;;7.10;99.90;;;;;;5051618;28;20032;-65
2023/02/04 08:39:11;;;;;;;30.17;11.55;;;7.10;99.90;;;;;;5069760;28;20021;-66
2023/02/04 08:41:36;;;;;;;24.52;9.23;;;7.20;99.90;;;;;;5072192;28;20367;-66
2023/02/04 08:44:02;;;;;;;34.67;10.88;;;7.20;99.90;;;;;;5072216;28;20016;-65
2023/02/04 08:46:28;;;;;;;25.13;9.32;;;7.30;99.90;;;;;;5053508;28;20020;-66
2023/02/04 08:48:53;;;;;;;26.05;9.38;;;7.50;99.90;;;;;;5070908;28;20032;-67
2023/02/04 08:51:19;;;;;;;33.22;14.40;;;7.60;99.90;;;;;;5069571;28;20039;-67
2023/02/04 08:53:45;;;;;;;28.10;10.88;;;7.80;99.90;;;;;;5068738;28;20016;-66
2023/02/04 08:56:16;;;;;;;31.65;8.88;;;7.80;99.90;;;;;;5069312;28;20025;-67
2023/02/04 08:58:42;;;;;;;33.72;9.40;;;8.00;99.90;;;;;;5069755;28;20378;-65
2023/02/04 09:01:10;;;;;;;32.92;9.75;;;8.00;99.90;;;;;;5055794;28;20044;-67
2023/02/04 09:03:36;;;;;;;28.92;8.63;;;7.90;99.90;;;;;;5066578;28;20513;-65
2023/02/04 09:06:01;;;;;;;33.25;9.57;;;7.90;99.90;;;;;;5051357;28;20040;-66
2023/02/04 09:08:27;;;;;;;39.85;9.02;;;8.00;99.90;;;;;;5070322;28;20025;-65
2023/02/04 09:10:52;;;;;;;33.30;7.93;;;8.00;99.90;;;;;;5066403;28;20098;-65
2023/02/04 09:13:18;;;;;;;36.75;8.07;;;8.10;99.90;;;;;;5065145;28;20028;-66
2023/02/04 09:15:43;;;;;;;29.25;8.00;;;8.20;99.90;;;;;;5066795;28;20656;-66
2023/02/04 09:18:20;;;;;;;30.05;7.72;;;8.40;99.90;;;;;;5068921;28;20752;-67
2023/02/04 09:20:47;;;;;;;23.48;8.32;;;8.40;99.90;;;;;;5068147;28;20028;-66
2023/02/04 09:23:14;;;;;;;28.88;8.75;;;8.40;99.90;;;;;;5061449;28;20471;-67
2023/02/04 09:25:40;;;;;;;22.15;7.25;;;8.60;99.90;;;;;;5065252;28;20032;-66
2023/02/04 09:28:10;;;;;;;24.45;7.15;;;8.70;99.90;;;;;;5068013;28;20664;-66
2023/02/04 09:30:36;;;;;;;24.65;7.65;;;8.90;99.90;;;;;;5068866;28;20090;-65
2023/02/04 09:33:01;;;;;;;22.13;6.95;;;8.90;99.90;;;;;;5065903;28;20031;-67
2023/02/04 09:35:27;;;;;;;22.23;7.50;;;9.00;99.90;;;;;;5065085;28;20032;-66
2023/02/04 09:37:53;;;;;;;26.10;7.30;;;9.10;99.90;;;;;;5066321;28;20023;-65
2023/02/04 09:40:19;;;;;;;25.55;6.80;;;9.10;99.90;;;;;;5066736;28;20036;-66
2023/02/04 09:42:48;;;;;;;30.52;9.07;;;9.00;99.90;;;;;;5065386;28;20505;-66
2023/02/04 09:45:17;;;;;;;29.48;8.38;;;8.90;99.90;;;;;;5062991;28;20044;-66
2023/02/04 09:47:43;;;;;;;22.38;7.85;;;9.00;99.90;;;;;;5066064;28;20515;-65
2023/02/04 09:50:17;;;;;;;25.17;8.23;;;9.00;99.90;;;;;;5064866;28;20024;-66
2023/02/04 09:52:45;;;;;;;22.98;8.05;;;9.00;99.90;;;;;;5070280;28;20035;-66
2023/02/04 09:55:15;;;;;;;29.73;7.50;;;9.00;99.90;;;;;;5064972;28;20023;-67
2023/02/04 09:57:41;;;;;;;38.22;8.70;;;9.00;99.90;;;;;;5063575;28;20024;-65
2023/02/04 10:00:18;;;;;;;22.95;9.38;;;8.80;99.90;;;;;;5064562;28;20039;-66
2023/02/04 10:02:44;;;;;;;30.75;8.75;;;8.80;99.90;;;;;;5053095;28;20095;-67
2023/02/04 10:05:26;;;;;;;23.75;7.40;;;8.80;99.90;;;;;;5066004;28;20398;-66
2023/02/04 10:07:51;;;;;;;30.85;10.32;;;8.80;99.90;;;;;;5062405;28;20491;-67
2023/02/04 10:10:20;;;;;;;26.98;10.40;;;8.90;99.90;;;;;;5066816;28;20059;-65
2023/02/04 10:12:47;;;;;;;26.25;7.35;;;9.00;99.90;;;;;;5057773;28;20032;-66
2023/02/04 10:15:21;;;;;;;24.33;7.80;;;9.00;99.90;;;;;;5056591;28;20051;-67
2023/02/04 10:17:49;;;;;;;39.85;11.23;;;9.10;99.90;;;;;;5061502;28;20033;-66
2023/02/04 10:20:18;;;;;;;27.75;8.02;;;9.20;99.90;;;;;;5059899;28;20028;-66
2023/02/04 10:22:45;;;;;;;17.33;7.85;;;9.30;99.90;;;;;;5062808;28;20040;-66
2023/02/04 10:25:15;;;;;;;28.83;9.73;;;9.40;99.90;;;;;;5064237;28;20095;-67
2023/02/04 10:27:54;;;;;;;26.13;8.32;;;9.50;99.90;;;;;;5067213;28;20032;-67
2023/02/04 10:30:32;;;;;;;27.83;8.18;;;9.40;99.90;;;;;;5064344;28;20020;-67
2023/02/04 10:32:58;;;;;;;26.85;9.20;;;9.40;99.90;;;;;;5065523;28;20111;-67
2023/02/04 10:35:24;;;;;;;36.40;8.75;;;9.30;99.90;;;;;;5066998;28;20025;-66
2023/02/04 10:38:05;;;;;;;26.83;8.63;;;9.30;99.90;;;;;;5065483;28;20103;-67
2023/02/04 10:40:35;;;;;;;24.67;8.30;;;9.40;99.90;;;;;;5066571;28;20021;-66
2023/02/04 10:43:09;;;;;;;24.88;9.43;;;9.40;99.90;;;;;;5062707;28;20020;-67
2023/02/04 10:45:34;;;;;;;30.30;9.85;;;9.40;99.90;;;;;;5043029;28;20395;-67
2023/02/04 10:48:00;;;;;;;24.15;7.85;;;9.70;99.90;;;;;;5066717;28;20368;-68
2023/02/04 10:50:28;;;;;;;18.75;7.60;;;9.80;99.90;;;;;;5058876;28;20097;-68
2023/02/04 10:54:28;;;;;;;22.50;6.80;;;9.70;99.90;;;;;;5067122;28;20017;-68
2023/02/04 10:55:45;;;;;;;26.77;7.75;;;9.50;99.90;;;;;;5065750;28;20036;-67
2023/02/04 10:58:15;;;;;;;21.98;6.07;;;9.60;99.90;;;;;;5068418;28;20487;-68
2023/02/04 11:00:41;;;;;;;25.17;6.68;;;9.60;99.90;;;;;;5065969;28;20028;-67
2023/02/04 11:03:10;;;;;;;31.30;7.68;;;9.80;99.90;;;;;;5055170;28;20032;-68
2023/02/04 11:05:37;;;;;;;31.67;8.40;;;10.10;99.90;;;;;;5065166;28;20033;-68
2023/02/04 11:08:19;;;;;;;26.25;7.50;;;10.10;99.90;;;;;;5063334;28;20024;-68
2023/02/04 11:10:45;;;;;;;30.73;8.05;;;10.00;99.90;;;;;;5050461;28;20024;-67
2023/02/04 11:13:22;;;;;;;25.85;7.10;;;9.80;99.90;;;;;;5067768;28;20099;-68
2023/02/04 11:16:13;;;;;;;24.45;9.50;;;9.80;99.90;;;;;;5065232;28;20039;-67
2023/02/04 11:18:59;;;;;;;25.40;7.57;;;9.90;99.90;;;;;;5064134;28;20637;-67
2023/02/04 11:21:41;;;;;;;24.00;8.70;;;10.20;99.90;;;;;;5061052;28;20024;-67
2023/02/04 11:24:13;;;;;;;20.08;8.15;;;10.20;99.90;;;;;;5065339;28;20609;-68
2023/02/04 11:26:43;;;;;;;25.20;7.38;;;10.30;99.90;;;;;;5062643;28;20029;-68
2023/02/04 11:29:25;;;;;;;23.58;6.22;;;10.40;99.90;;;;;;5068415;28;20020;-68
2023/02/04 11:31:50;;;;;;;20.13;7.63;;;10.40;99.90;;;;;;5063039;28;20086;-67
2023/02/04 11:34:20;;;;;;;25.15;6.80;;;10.30;99.90;;;;;;5065072;28;20032;-67
2023/02/04 11:37:01;;;;;;;22.60;6.30;;;10.30;99.90;;;;;;5068168;28;20087;-67
2023/02/04 11:39:47;;;;;;;21.35;5.63;;;10.30;99.90;;;;;;5070591;28;20052;-68
2023/02/04 11:42:32;;;;;;;32.15;7.65;;;10.30;99.90;;;;;;5063176;28;20028;-67
2023/02/04 11:45:00;;;;;;;14.57;5.63;;;10.10;99.90;;;;;;5068544;28;21695;-67
2023/02/04 11:47:32;;;;;;;20.00;5.78;;;10.00;99.90;;;;;;5070440;28;20127;-66
2023/02/04 11:50:00;;;;;;;21.02;5.47;;;10.10;99.90;;;;;;5068405;28;20024;-67
2023/02/04 11:52:26;;;;;;;16.10;6.72;;;9.90;99.90;;;;;;5070622;28;20036;-68
2023/02/04 11:54:59;;;;;;;24.48;6.40;;;10.00;99.90;;;;;;5068475;28;20372;-67
2023/02/04 11:57:25;;;;;;;23.45;6.78;;;10.00;99.90;;;;;;5072371;28;20078;-68
2023/02/04 11:59:52;;;;;;;26.60;8.85;;;10.10;99.90;;;;;;5073395;28;20028;-68
2023/02/04 12:02:20;;;;;;;23.45;7.03;;;10.00;99.90;;;;;;5053680;28;20051;-68
2023/02/04 12:04:51;;;;;;;23.45;5.68;;;10.10;99.90;;;;;;5068431;28;20056;-67
2023/02/04 12:07:23;;;;;;;23.30;6.70;;;10.00;99.90;;;;;;5068329;28;20031;-68
2023/02/04 12:09:49;;;;;;;20.80;5.35;;;9.90;99.90;;;;;;5074722;28;20052;-66
2023/02/04 12:12:29;;;;;;;20.38;6.68;;;10.00;99.90;;;;;;5073220;28;20066;-68
2023/02/04 12:15:13;;;;;;;20.30;5.75;;;9.90;99.90;;;;;;5056432;28;20063;-68
2023/02/04 12:17:39;;;;;;;24.77;4.93;;;10.00;99.90;;;;;;5070383;28;20086;-67
2023/02/04 12:20:05;;;;;;;21.30;6.22;;;10.10;99.90;;;;;;5068600;28;20024;-68
2023/02/04 12:22:30;;;;;;;27.63;5.50;;;10.10;99.90;;;;;;5072386;28;20032;-66
2023/02/04 12:24:56;;;;;;;22.48;5.15;;;10.00;99.90;;;;;;5067239;28;20028;-67
2023/02/04 12:27:22;;;;;;;21.02;4.85;;;10.10;99.90;;;;;;5064680;28;20028;-67
2023/02/04 12:29:47;;;;;;;22.90;5.95;;;10.10;99.90;;;;;;5068613;28;20031;-66
2023/02/04 12:32:13;;;;;;;14.25;5.15;;;10.10;99.90;;;;;;5070537;28;20032;-68
2023/02/04 12:34:38;;;;;;;25.65;5.20;;;10.00;99.90;;;;;;5071418;28;20040;-66
2023/02/04 12:37:04;;;;;;;22.52;5.90;;;9.90;99.90;;;;;;5071891;28;20650;-66
2023/02/04 12:39:30;;;;;;;20.02;5.68;;;9.80;99.90;;;;;;5073148;28;20085;-66
2023/02/04 12:41:56;;;;;;;19.05;4.95;;;9.90;99.90;;;;;;5071871;28;20012;-66
2023/02/04 12:44:22;;;;;;;19.83;4.55;;;10.00;99.90;;;;;;5071292;28;20458;-67